Time;durP1;ratioP1;P1;durP2;ratioP2;P2;SDS_P1;SDS_P2;PMS_P1;PMS_P2;Temp;Humidity;BMP_temperature;BMP_pressure;BME280_temperature;BME280_humidity;BME280_pressure;Samples;Min_cycle;Max_cycle;Signal;HPM_P1;HPM_P2
2021/12/20 00:02:06;;;;;;;30.23;6.38;;;5.10;99.90;;;;;;5079458;28;20059;-91
2021/12/20 00:04:32;;;;;;;39.10;6.32;;;5.30;99.90;;;;;;5051567;28;20119;-91
2021/12/20 00:06:57;;;;;;;31.10;4.95;;;5.00;99.90;;;;;;5074537;28;20168;-90
2021/12/20 00:09:23;;;;;;;26.25;4.95;;;5.10;99.90;;;;;;5071278;28;20039;-91
2021/12/20 00:11:49;;;;;;;24.38;5.00;;;4.90;99.90;;;;;;5029502;28;20119;-91
2021/12/20 00:14:14;;;;;;;24.98;5.30;;;4.90;99.90;;;;;;5074634;28;20472;-91
2021/12/20 00:16:40;;;;;;;29.05;5.05;;;6.10;99.90;;;;;;5044092;28;20362;-90
2021/12/20 00:19:09;;;;;;;23.80;5.20;;;5.10;99.90;;;;;;5055300;28;20090;-90
2021/12/20 00:21:35;;;;;;;20.63;4.88;;;4.70;99.90;;;;;;5059028;28;20038;-91
2021/12/20 00:24:01;;;;;;;38.38;5.72;;;4.70;99.90;;;;;;5056588;28;20736;-91
2021/12/20 00:26:27;;;;;;;34.35;6.22;;;4.60;99.90;;;;;;5050556;28;20040;-91
2021/12/20 00:28:53;;;;;;;33.85;5.05;;;4.60;99.90;;;;;;5033770;28;20036;-90
2021/12/20 00:31:18;;;;;;;25.88;4.55;;;4.50;99.90;;;;;;5054094;28;20039;-92
2021/12/20 00:33:44;;;;;;;18.20;5.03;;;4.90;99.90;;;;;;5042920;28;20044;-90
2021/12/20 00:36:09;;;;;;;26.85;4.60;;;4.40;99.90;;;;;;5051560;28;20115;-90
2021/12/20 00:41:21;;;;;;;21.33;4.55;;;4.40;99.90;;;;;;5069612;28;20162;-91
2021/12/20 00:43:47;;;;;;;24.77;4.68;;;4.40;99.90;;;;;;5088824;28;20039;-91
2021/12/20 00:46:13;;;;;;;32.33;5.30;;;4.70;99.90;;;;;;5042082;28;20040;-92
2021/12/20 00:48:39;;;;;;;24.52;5.57;;;4.50;99.90;;;;;;5060843;28;20047;-91
2021/12/20 00:51:04;;;;;;;31.73;5.50;;;4.70;99.90;;;;;;5089672;28;20059;-91
2021/12/20 00:53:30;;;;;;;23.27;4.63;;;3.90;99.90;;;;;;5088800;28;20598;-91
2021/12/20 00:55:56;;;;;;;20.73;4.88;;;3.80;99.90;;;;;;5049230;28;20052;-90
2021/12/20 00:58:22;;;;;;;30.75;5.63;;;3.80;99.90;;;;;;5067457;28;20044;-91
2021/12/20 01:00:54;;;;;;;28.33;5.32;;;4.70;99.90;;;;;;5046148;28;20032;-91
2021/12/20 01:03:20;;;;;;;;;;;4.30;99.90;;;;;;5070911;28;20117;-91
2021/12/20 01:05:46;;;;;;;30.13;5.25;;;3.60;99.90;;;;;;5107553;28;19957;-91
2021/12/20 01:08:12;;;;;;;26.08;5.72;;;3.50;99.90;;;;;;5051946;28;20372;-91
2021/12/20 01:10:50;;;;;;;30.52;4.50;;;3.50;99.90;;;;;;5042349;28;20093;-91
2021/12/20 01:13:20;;;;;;;24.48;4.35;;;3.50;99.90;;;;;;5061888;28;20032;-91
2021/12/20 01:15:50;;;;;;;40.22;5.55;;;3.40;99.90;;;;;;5070298;28;20038;-91
2021/12/20 01:18:16;;;;;;;29.02;5.07;;;3.60;99.90;;;;;;5078108;28;20031;-91
2021/12/20 01:20:43;;;;;;;25.02;4.90;;;3.30;99.90;;;;;;5041684;28;20120;-91
2021/12/20 01:23:11;;;;;;;22.13;5.03;;;3.30;99.90;;;;;;5053449;28;20546;-91
2021/12/20 01:25:37;;;;;;;19.42;4.70;;;3.30;99.90;;;;;;5075771;28;20108;-92
2021/12/20 01:28:05;;;;;;;23.27;4.72;;;3.60;99.90;;;;;;5079777;28;20047;-91
2021/12/20 01:30:31;;;;;;;18.77;4.30;;;3.20;99.90;;;;;;5056794;28;20134;-91
2021/12/20 01:32:57;;;;;;;25.73;4.70;;;3.10;99.90;;;;;;5058224;28;20043;-91
2021/12/20 01:35:25;;;;;;;17.35;4.72;;;3.10;99.90;;;;;;5048518;28;20436;-91
2021/12/20 01:37:52;;;;;;;33.28;4.88;;;3.10;99.90;;;;;;5046035;28;20036;-91
2021/12/20 01:40:19;;;;;;;29.23;4.65;;;3.00;99.90;;;;;;5069517;28;20038;-90
2021/12/20 01:42:47;;;;;;;26.25;5.55;;;3.40;99.90;;;;;;5046679;28;20028;-91
2021/12/20 01:45:15;;;;;;;25.80;4.82;;;2.90;99.90;;;;;;5071177;28;20031;-91
2021/12/20 01:47:45;;;;;;;25.05;5.28;;;2.90;99.90;;;;;;5066502;28;20086;-90
2021/12/20 01:50:20;;;;;;;36.05;5.18;;;3.50;99.90;;;;;;5056979;28;20074;-91
2021/12/20 01:52:46;;;;;;;36.05;6.13;;;2.90;99.90;;;;;;5058948;28;20039;-91
2021/12/20 01:55:21;;;;;;;21.70;4.70;;;2.80;99.90;;;;;;5047459;28;20062;-90
2021/12/20 01:57:49;;;;;;;25.08;5.22;;;4.00;99.90;;;;;;5065112;28;20032;-90
2021/12/20 02:00:23;;;;;;;22.80;5.03;;;3.30;99.90;;;;;;5061274;28;20046;-91
2021/12/20 02:02:55;;;;;;;30.95;5.20;;;2.70;99.90;;;;;;5058622;28;20551;-90
2021/12/20 02:05:27;;;;;;;30.45;4.95;;;2.70;99.90;;;;;;5049170;28;20099;-91
2021/12/20 02:10:22;;;;;;;22.27;5.63;;;3.60;99.90;;;;;;5073232;28;20068;-89
2021/12/20 02:12:48;;;;;;;26.60;5.18;;;2.70;99.90;;;;;;5053469;28;20032;-90
2021/12/20 02:15:15;;;;;;;18.83;4.32;;;2.50;99.90;;;;;;5025319;28;20679;-91
2021/12/20 02:17:41;;;;;;;27.58;4.20;;;3.40;99.90;;;;;;5056915;28;20028;-90
2021/12/20 02:20:08;;;;;;;15.27;5.22;;;2.70;99.90;;;;;;5049455;28;20031;-90
2021/12/20 02:22:34;;;;;;;27.75;5.45;;;2.40;99.90;;;;;;5063177;28;20039;-90
2021/12/20 02:25:00;;;;;;;31.50;4.97;;;2.70;99.90;;;;;;5048042;28;20444;-91
2021/12/20 02:27:26;;;;;;;28.13;5.43;;;2.40;99.90;;;;;;5045121;28;20036;-91
2021/12/20 02:30:06;;;;;;;29.60;5.32;;;3.10;99.90;;;;;;5090017;28;20122;-90
2021/12/20 02:38:28;;;;;;;28.80;4.68;;;3.00;99.90;;;;;;5078617;28;20040;-91
2021/12/20 02:41:12;;;;;;;20.25;4.43;;;3.30;99.90;;;;;;5055824;28;20081;-90
2021/12/20 02:43:42;;;;;;;26.25;4.93;;;2.20;99.90;;;;;;5081040;28;20039;-91
2021/12/20 02:46:30;;;;;;;21.02;3.97;;;2.10;99.90;;;;;;5085471;28;20052;-91
2021/12/20 02:48:56;;;;;;;25.52;4.40;;;2.10;99.90;;;;;;5071458;28;20042;-89
2021/12/20 02:51:26;;;;;;;28.00;5.10;;;2.40;99.90;;;;;;5073848;28;20043;-90
2021/12/20 02:53:55;;;;;;;20.58;4.80;;;2.90;99.90;;;;;;5065866;28;20048;-90
2021/12/20 02:56:21;;;;;;;29.60;4.93;;;2.00;99.90;;;;;;5034738;28;20078;-91
2021/12/20 02:58:47;;;;;;;24.67;4.85;;;2.40;99.90;;;;;;5059521;28;20035;-91
2021/12/20 03:01:13;;;;;;;23.00;4.70;;;1.90;99.90;;;;;;5053495;28;20039;-91
2021/12/20 03:03:40;;;;;;;28.90;5.80;;;2.40;99.90;;;;;;5072254;28;20028;-90
2021/12/20 03:06:22;;;;;;;27.27;4.70;;;1.90;99.90;;;;;;5054891;28;20043;-91
2021/12/20 03:08:51;;;;;;;25.83;5.15;;;1.90;99.90;;;;;;5041984;28;20035;-92
2021/12/20 03:11:18;;;;;;;23.05;4.38;;;1.80;99.90;;;;;;5056276;28;20439;-90
2021/12/20 03:13:47;;;;;;;25.55;4.80;;;3.10;99.90;;;;;;5049407;28;20035;-91
2021/12/20 03:16:12;;;;;;;27.08;4.30;;;1.80;99.90;;;;;;5056829;28;20447;-91
2021/12/20 03:18:38;;;;;;;23.95;4.40;;;1.80;99.90;;;;;;5033976;28;20039;-91
2021/12/20 03:21:04;;;;;;;26.42;4.88;;;1.80;99.90;;;;;;5053879;28;20051;-91
2021/12/20 03:23:30;;;;;;;34.13;6.18;;;1.80;99.90;;;;;;5055501;28;20488;-91
2021/12/20 03:25:56;;;;;;;23.63;5.75;;;1.80;99.90;;;;;;5051600;28;20025;-91
2021/12/20 03:28:21;;;;;;;31.67;4.57;;;1.90;99.90;;;;;;5071029;28;20649;-91
2021/12/20 03:30:47;;;;;;;24.77;5.22;;;1.70;99.90;;;;;;5071313;28;20393;-89
2021/12/20 03:33:13;;;;;;;26.42;4.60;;;1.70;99.90;;;;;;5065129;28;20547;-91
2021/12/20 03:35:39;;;;;;;24.60;5.13;;;1.80;99.90;;;;;;5055034;28;20032;-91
2021/12/20 03:38:05;;;;;;;19.90;4.55;;;2.30;99.90;;;;;;5053937;28;20405;-91
2021/12/20 03:40:31;;;;;;;21.25;4.53;;;1.60;99.90;;;;;;5044884;28;20114;-91
2021/12/20 03:42:56;;;;;;;23.65;3.95;;;1.60;99.90;;;;;;5070357;28;20026;-91
2021/12/20 03:45:22;;;;;;;20.45;4.60;;;2.30;99.90;;;;;;5058778;28;20032;-91
2021/12/20 03:47:48;;;;;;;28.83;4.68;;;1.50;99.90;;;;;;5083638;28;20032;-91
2021/12/20 03:50:15;;;;;;;26.88;4.85;;;1.50;99.90;;;;;;5061472;28;20043;-91
2021/12/20 03:52:41;;;;;;;26.27;4.43;;;2.80;99.90;;;;;;5040711;28;20037;-91
2021/12/20 03:55:13;;;;;;;19.67;4.60;;;1.50;99.90;;;;;;5056601;28;20059;-91
2021/12/20 03:57:39;;;;;;;28.80;4.43;;;1.40;99.90;;;;;;5062627;28;20044;-91
2021/12/20 04:00:09;;;;;;;20.55;4.07;;;2.30;99.90;;;;;;5053466;28;20039;-92
2021/12/20 04:02:40;;;;;;;35.35;4.82;;;1.40;99.90;;;;;;5068581;28;20024;-91
2021/12/20 04:05:07;;;;;;;18.80;3.72;;;2.60;99.90;;;;;;5069804;28;20128;-91
2021/12/20 04:07:33;;;;;;;19.98;3.63;;;1.30;99.90;;;;;;5065966;28;20123;-91
2021/12/20 04:09:59;;;;;;;22.38;5.10;;;1.20;99.90;;;;;;5070928;28;20532;-90
2021/12/20 04:12:24;;;;;;;13.73;4.40;;;1.20;99.90;;;;;;5055894;28;20439;-91
2021/12/20 04:14:50;;;;;;;16.85;3.55;;;1.10;99.90;;;;;;5068677;28;20362;-91
2021/12/20 04:17:16;;;;;;;24.45;3.90;;;1.10;99.90;;;;;;5068240;28;20044;-91
2021/12/20 04:19:42;;;;;;;16.90;3.30;;;1.80;99.90;;;;;;5055823;28;20032;-91
2021/12/20 04:22:08;;;;;;;24.73;3.70;;;1.60;99.90;;;;;;5061084;28;20044;-91
2021/12/20 04:24:34;;;;;;;17.73;3.60;;;1.40;99.90;;;;;;5053072;28;20044;-91
2021/12/20 04:27:00;;;;;;;24.48;3.90;;;0.90;99.90;;;;;;5068870;28;20115;-92
2021/12/20 04:29:27;;;;;;;23.58;3.92;;;0.90;99.90;;;;;;5052774;28;20127;-91
2021/12/20 04:31:53;;;;;;;17.52;3.70;;;0.90;99.90;;;;;;5052600;28;20116;-92
2021/12/20 04:34:19;;;;;;;19.38;4.43;;;1.30;99.90;;;;;;5052114;28;20132;-91
2021/12/20 04:36:45;;;;;;;24.50;5.68;;;0.80;99.90;;;;;;5061032;28;20036;-92
2021/12/20 04:39:15;;;;;;;21.27;4.10;;;0.90;99.90;;;;;;5052635;28;20461;-91
2021/12/20 04:41:41;;;;;;;20.00;3.53;;;0.80;99.90;;;;;;5039310;28;20028;-92
2021/12/20 04:44:07;;;;;;;26.55;4.20;;;1.00;99.90;;;;;;5060485;28;20463;-91
2021/12/20 04:46:33;;;;;;;26.92;3.85;;;0.80;99.90;;;;;;5069610;28;20559;-92
2021/12/20 04:48:59;;;;;;;22.10;4.70;;;0.80;99.90;;;;;;5068480;28;20044;-90
2021/12/20 04:51:24;;;;;;;26.55;4.57;;;1.30;99.90;;;;;;5060956;28;20469;-91
2021/12/20 04:53:50;;;;;;;17.42;3.88;;;1.80;99.90;;;;;;5043153;28;20517;-91
2021/12/20 04:56:16;;;;;;;24.35;4.03;;;0.70;99.90;;;;;;5051701;28;20064;-91
2021/12/20 04:58:42;;;;;;;28.30;4.80;;;1.90;99.90;;;;;;5043908;28;20063;-91
2021/12/20 05:01:07;;;;;;;18.65;4.53;;;0.70;99.90;;;;;;5069596;28;20040;-91
2021/12/20 05:03:33;;;;;;;27.30;4.20;;;0.70;99.90;;;;;;5022569;28;20040;-91
2021/12/20 05:05:59;;;;;;;21.02;4.03;;;2.10;99.90;;;;;;5047419;28;20039;-91
2021/12/20 05:08:33;;;;;;;19.95;4.72;;;0.70;99.90;;;;;;5063321;28;20097;-91
2021/12/20 05:10:59;;;;;;;21.58;5.00;;;0.60;99.90;;;;;;5039780;28;20068;-91
2021/12/20 05:13:24;;;;;;;30.75;5.13;;;0.60;99.90;;;;;;5020963;28;20072;-90
2021/12/20 05:15:51;;;;;;;16.40;3.92;;;0.60;99.90;;;;;;5045372;28;20032;-90
2021/12/20 05:18:17;;;;;;;27.60;4.72;;;0.60;99.90;;;;;;5051516;28;20033;-92
2021/12/20 05:20:42;;;;;;;20.17;4.90;;;1.60;99.90;;;;;;5044697;28;20182;-92
2021/12/20 05:23:08;;;;;;;20.20;4.57;;;0.60;99.90;;;;;;5042499;28;20035;-91
2021/12/20 05:25:35;;;;;;;21.98;4.20;;;0.60;99.90;;;;;;5080504;28;20037;-91
2021/12/20 05:28:01;;;;;;;22.25;4.07;;;0.60;99.90;;;;;;5065492;28;20041;-91
2021/12/20 05:30:27;;;;;;;21.33;4.28;;;0.60;99.90;;;;;;5046548;28;20673;-91
2021/12/20 05:32:54;;;;;;;25.33;4.38;;;0.50;99.90;;;;;;5051404;28;20497;-90
2021/12/20 05:35:21;;;;;;;16.20;3.22;;;0.50;99.90;;;;;;5042224;28;20043;-91
2021/12/20 05:37:47;;;;;;;18.40;4.07;;;1.90;99.90;;;;;;5065641;28;20040;-91
2021/12/20 05:40:14;;;;;;;15.90;2.58;;;0.40;99.90;;;;;;5052166;28;20071;-91
2021/12/20 05:42:40;;;;;;;21.67;3.70;;;0.40;99.90;;;;;;5066923;28;20066;-91
2021/12/20 05:45:07;;;;;;;17.95;3.33;;;0.30;99.90;;;;;;5043301;28;20115;-90
2021/12/20 05:47:33;;;;;;;12.65;3.15;;;0.20;99.90;;;;;;5045264;28;20123;-90
2021/12/20 05:50:00;;;;;;;19.67;4.22;;;0.20;99.90;;;;;;5067375;28;20042;-91
2021/12/20 05:52:25;;;;;;;18.77;3.47;;;0.70;99.90;;;;;;5059296;28;20094;-91
2021/12/20 05:54:51;;;;;;;21.38;3.25;;;0.10;99.90;;;;;;5048822;28;20424;-91
2021/12/20 05:57:17;;;;;;;19.42;4.68;;;0.10;99.90;;;;;;5041357;28;20513;-91
2021/12/20 05:59:43;;;;;;;23.35;3.70;;;0.10;99.90;;;;;;5038160;28;20396;-91
2021/12/20 06:02:09;;;;;;;22.48;3.75;;;0.10;99.90;;;;;;5068024;28;20037;-90
2021/12/20 06:04:35;;;;;;;19.55;3.97;;;0.10;99.90;;;;;;5051343;28;20044;-91
2021/12/20 06:07:01;;;;;;;21.70;4.53;;;0.40;99.90;;;;;;5048452;28;20060;-91
2021/12/20 06:09:28;;;;;;;24.88;4.13;;;0.10;99.90;;;;;;5054724;28;20045;-91
2021/12/20 06:11:59;;;;;;;24.25;4.85;;;0.80;99.90;;;;;;5052127;28;20039;-91
2021/12/20 06:14:26;;;;;;;17.58;3.90;;;1.00;99.90;;;;;;5038236;28;20051;-90
2021/12/20 06:16:52;;;;;;;16.63;3.08;;;0.70;99.90;;;;;;5046148;28;20094;-91
2021/12/20 06:19:17;;;;;;;15.73;3.40;;;0.00;99.90;;;;;;5038586;28;20440;-91
2021/12/20 06:21:43;;;;;;;16.75;3.20;;;0.00;99.90;;;;;;5038668;28;20386;-90
2021/12/20 06:24:09;;;;;;;14.70;3.90;;;1.20;99.90;;;;;;5052138;28;20147;-90
2021/12/20 06:26:34;;;;;;;24.17;4.53;;;-0.10;99.90;;;;;;5050710;28;22030;-90
2021/12/20 06:29:00;;;;;;;20.77;4.75;;;-0.10;99.90;;;;;;5031934;28;20036;-91
2021/12/20 06:31:26;;;;;;;33.53;4.13;;;-0.10;99.90;;;;;;5042388;28;20677;-91
2021/12/20 06:33:51;;;;;;;26.85;4.63;;;1.00;99.90;;;;;;5060741;28;20563;-90
2021/12/20 06:36:18;;;;;;;26.52;4.90;;;-0.10;99.90;;;;;;5033559;28;20055;-91
2021/12/20 06:38:46;;;;;;;20.02;6.10;;;-0.10;99.90;;;;;;5070736;28;20032;-90
2021/12/20 06:41:12;;;;;;;32.15;5.32;;;0.90;99.90;;;;;;5072203;28;20119;-91
2021/12/20 06:43:38;;;;;;;21.63;4.50;;;0.90;99.90;;;;;;5057607;28;20024;-90
2021/12/20 06:46:04;;;;;;;23.90;4.80;;;-0.10;99.90;;;;;;5054858;28;20397;-90
2021/12/20 06:48:30;;;;;;;16.48;4.65;;;-0.20;99.90;;;;;;5055277;28;20119;-91
2021/12/20 06:50:55;;;;;;;28.85;6.93;;;0.30;99.90;;;;;;5067219;28;20039;-91
2021/12/20 06:53:21;;;;;;;26.23;7.18;;;-0.20;99.90;;;;;;5051622;28;20044;-91
2021/12/20 06:55:47;;;;;;;27.73;6.45;;;-0.20;99.90;;;;;;5070131;28;20051;-91
2021/12/20 06:58:13;;;;;;;22.83;5.93;;;-0.20;99.90;;;;;;5050402;28;20113;-91
2021/12/20 07:00:39;;;;;;;27.67;6.57;;;-0.30;99.90;;;;;;5073360;28;20504;-91
2021/12/20 07:03:04;;;;;;;23.88;6.00;;;-0.30;99.90;;;;;;5052781;28;20043;-91
2021/12/20 07:05:30;;;;;;;27.75;6.20;;;1.00;99.90;;;;;;5076648;28;20039;-91
2021/12/20 07:07:56;;;;;;;28.48;5.10;;;-0.40;99.90;;;;;;5036970;28;20044;-91
2021/12/20 07:10:22;;;;;;;28.95;5.38;;;0.70;99.90;;;;;;5048078;28;20035;-90
2021/12/20 07:12:50;;;;;;;24.23;4.65;;;-0.50;99.90;;;;;;5071151;28;20042;-90
2021/12/20 07:15:16;;;;;;;20.75;4.53;;;0.20;99.90;;;;;;5058692;28;20174;-90
2021/12/20 07:17:42;;;;;;;12.90;4.20;;;-0.50;99.90;;;;;;5076687;28;20122;-90
2021/12/20 07:20:09;;;;;;;25.48;5.55;;;-0.60;99.90;;;;;;5060969;28;20036;-91
2021/12/20 07:22:35;;;;;;;23.60;7.15;;;-0.60;99.90;;;;;;5071466;28;20036;-90
2021/12/20 07:25:01;;;;;;;24.08;5.50;;;-0.60;99.90;;;;;;5070907;28;20508;-89
2021/12/20 07:27:27;;;;;;;22.13;5.70;;;0.30;99.90;;;;;;5065279;28;20035;-90
2021/12/20 07:29:53;;;;;;;29.92;7.30;;;0.30;99.90;;;;;;5046533;28;20047;-88
2021/12/20 07:32:19;;;;;;;26.25;8.75;;;-0.60;99.90;;;;;;5051222;28;20058;-89
2021/12/20 07:34:44;;;;;;;31.95;8.88;;;0.00;99.90;;;;;;5056148;28;20079;-89
2021/12/20 07:37:10;;;;;;;22.77;8.60;;;0.50;99.90;;;;;;5052408;28;20051;-91
2021/12/20 07:39:36;;;;;;;28.13;7.78;;;-0.60;99.90;;;;;;5076102;28;20568;-93
2021/12/20 07:42:03;;;;;;;28.65;7.88;;;-0.60;99.90;;;;;;5065344;28;20028;-86
2021/12/20 07:44:29;;;;;;;22.65;7.30;;;-0.60;99.90;;;;;;5063655;28;20871;-87
2021/12/20 07:46:55;;;;;;;22.98;7.40;;;-0.70;99.90;;;;;;5073358;28;20494;-86
2021/12/20 07:49:20;;;;;;;37.15;7.18;;;-0.70;99.90;;;;;;5076581;28;20082;-88
2021/12/20 07:51:46;;;;;;;24.55;6.60;;;-0.70;99.90;;;;;;5078949;28;20096;-86
2021/12/20 07:54:12;;;;;;;24.05;6.25;;;-0.70;99.90;;;;;;5053210;28;20036;-86
2021/12/20 07:56:39;;;;;;;32.08;5.78;;;-0.50;99.90;;;;;;5071003;28;20043;-85
2021/12/20 07:59:05;;;;;;;24.25;6.10;;;-0.70;99.90;;;;;;5069426;28;20032;-87
2021/12/20 08:01:34;;;;;;;21.27;4.97;;;0.90;99.90;;;;;;5051093;28;20863;-88
2021/12/20 08:04:01;;;;;;;19.13;6.63;;;-0.70;99.90;;;;;;5068341;28;20074;-87
2021/12/20 08:06:27;;;;;;;20.33;6.57;;;-0.50;99.90;;;;;;5075453;28;20071;-88
2021/12/20 08:08:52;;;;;;;39.22;7.43;;;-0.80;99.90;;;;;;5049352;28;20030;-85
2021/12/20 08:11:18;;;;;;;28.92;6.85;;;-0.70;99.90;;;;;;5043327;28;20401;-86
2021/12/20 08:13:46;;;;;;;14.63;5.40;;;-0.60;99.90;;;;;;5059677;28;20043;-87
2021/12/20 08:16:13;;;;;;;15.98;4.68;;;-0.30;99.90;;;;;;5061627;28;20090;-87
2021/12/20 08:18:44;;;;;;;20.20;6.18;;;0.40;99.90;;;;;;5050373;28;20109;-89
2021/12/20 08:21:10;;;;;;;31.40;5.50;;;-0.20;99.90;;;;;;5046637;28;20508;-86
2021/12/20 08:23:40;;;;;;;25.23;7.07;;;-0.10;99.90;;;;;;5055894;28;20039;-90
2021/12/20 08:26:07;;;;;;;29.30;6.32;;;0.00;99.90;;;;;;5047911;28;20086;-87
2021/12/20 08:28:35;;;;;;;27.40;5.82;;;0.10;99.90;;;;;;5030303;28;20097;-88
2021/12/20 08:31:02;;;;;;;20.55;5.22;;;0.10;99.90;;;;;;5034420;28;20044;-85
2021/12/20 08:33:29;;;;;;;43.75;7.70;;;0.00;99.90;;;;;;5057385;28;20035;-85
2021/12/20 08:35:54;;;;;;;24.85;6.05;;;0.00;99.90;;;;;;5048897;28;20670;-86
2021/12/20 08:38:20;;;;;;;23.50;7.07;;;1.10;99.90;;;;;;5048401;28;20036;-85
2021/12/20 08:40:48;;;;;;;34.10;7.82;;;0.10;99.90;;;;;;5031400;28;20047;-85
2021/12/20 08:43:14;;;;;;;31.00;6.38;;;0.10;99.90;;;;;;5064093;28;20036;-83
2021/12/20 08:45:41;;;;;;;23.42;6.38;;;0.70;99.90;;;;;;5060974;28;20035;-90
2021/12/20 08:48:07;;;;;;;26.25;6.97;;;0.20;99.90;;;;;;5050608;28;20142;-89
2021/12/20 08:50:32;;;;;;;27.80;7.30;;;0.30;99.90;;;;;;5055286;28;20054;-89
2021/12/20 08:52:59;;;;;;;28.83;8.13;;;0.40;99.90;;;;;;5030966;28;20036;-90
2021/12/20 08:55:25;;;;;;;25.30;6.95;;;1.50;99.90;;;;;;5046034;28;20450;-89
2021/12/20 08:57:52;;;;;;;22.00;6.10;;;0.60;99.90;;;;;;5045293;28;20119;-89
2021/12/20 09:00:27;;;;;;;17.92;6.85;;;0.70;99.90;;;;;;5062682;28;20458;-89
2021/12/20 09:02:55;;;;;;;30.70;7.63;;;0.80;99.90;;;;;;5057715;28;20431;-89
2021/12/20 09:05:22;;;;;;;22.63;5.47;;;1.30;99.90;;;;;;5030251;28;20044;-89
2021/12/20 09:07:48;;;;;;;20.27;5.00;;;2.40;99.90;;;;;;5061801;28;20039;-91
2021/12/20 09:10:15;;;;;;;12.57;3.75;;;3.50;99.90;;;;;;5054451;28;20528;-91
2021/12/20 09:12:42;;;;;;;14.45;4.35;;;5.00;99.90;;;;;;5065054;28;20036;-92
2021/12/20 09:15:15;;;;;;;11.85;3.60;;;5.20;99.90;;;;;;5057664;28;20047;-92
2021/12/20 09:17:42;;;;;;;24.13;5.70;;;6.40;99.90;;;;;;5048719;28;20132;-92
2021/12/20 09:20:09;;;;;;;17.25;4.82;;;5.90;99.90;;;;;;5042446;28;20047;-90
2021/12/20 09:22:39;;;;;;;17.73;4.25;;;6.00;99.90;;;;;;5052084;28;20054;-91
2021/12/20 09:25:06;;;;;;;16.50;4.97;;;6.30;99.90;;;;;;5032674;28;20056;-92
2021/12/20 09:27:33;;;;;;;17.58;4.43;;;6.40;99.90;;;;;;5036726;28;20121;-92
2021/12/20 09:29:58;;;;;;;16.98;4.15;;;7.10;99.90;;;;;;5042244;28;20038;-92
2021/12/20 09:32:24;;;;;;;18.45;4.50;;;7.80;99.90;;;;;;5031267;28;20043;-91
2021/12/20 09:34:50;;;;;;;14.52;3.88;;;7.10;99.90;;;;;;5049546;28;20497;-92
2021/12/20 09:37:16;;;;;;;15.68;4.70;;;7.40;99.90;;;;;;5038557;28;20468;-91
2021/12/20 09:39:42;;;;;;;19.45;5.25;;;7.60;99.90;;;;;;5050467;28;20101;-86
2021/12/20 09:42:12;;;;;;;13.88;3.95;;;6.40;99.90;;;;;;5051245;28;20085;-86
2021/12/20 09:44:42;;;;;;;15.02;4.60;;;7.10;99.90;;;;;;5045927;28;20106;-89
2021/12/20 09:47:08;;;;;;;17.10;4.55;;;6.90;99.90;;;;;;5053000;28;20444;-88
2021/12/20 09:49:34;;;;;;;11.70;4.20;;;6.90;99.90;;;;;;5041187;28;20046;-89
2021/12/20 09:52:00;;;;;;;17.35;4.65;;;6.90;99.90;;;;;;5031187;28;20565;-88
2021/12/20 09:54:27;;;;;;;13.57;4.05;;;6.60;99.90;;;;;;5062142;28;20040;-88
2021/12/20 09:56:57;;;;;;;14.98;5.25;;;6.20;99.90;;;;;;5061440;28;20056;-87
2021/12/20 09:59:27;;;;;;;17.98;4.68;;;6.30;99.90;;;;;;5053659;28;20108;-87
2021/12/20 10:01:53;;;;;;;17.38;4.70;;;6.30;99.90;;;;;;5062549;28;20036;-84
2021/12/20 10:04:20;;;;;;;12.32;4.78;;;5.30;99.90;;;;;;5059407;28;20045;-86
2021/12/20 10:06:51;;;;;;;12.65;4.47;;;5.20;99.90;;;;;;5056357;28;20079;-87
2021/12/20 10:09:23;;;;;;;12.43;4.30;;;4.90;99.90;;;;;;5060491;28;20083;-86
2021/12/20 10:11:49;;;;;;;11.35;4.43;;;4.80;99.90;;;;;;5030862;28;20035;-82
2021/12/20 10:14:16;;;;;;;14.25;5.15;;;4.30;99.90;;;;;;5064027;28;20377;-86
2021/12/20 10:16:44;;;;;;;14.50;4.85;;;4.80;99.90;;;;;;5055091;28;20051;-89
2021/12/20 10:19:34;;;;;;;15.10;5.25;;;4.70;99.90;;;;;;5063041;28;20122;-85
2021/12/20 10:22:20;;;;;;;13.85;4.78;;;3.60;99.90;;;;;;5053448;28;20032;-89
2021/12/20 10:24:45;;;;;;;14.57;4.43;;;4.30;99.90;;;;;;5050388;28;20107;-86
2021/12/20 10:27:30;;;;;;;13.70;4.18;;;3.30;99.90;;;;;;5027401;28;20032;-89
2021/12/20 10:29:56;;;;;;;14.90;4.35;;;3.20;99.90;;;;;;5056453;28;20135;-87
2021/12/20 10:32:43;;;;;;;12.38;4.43;;;3.10;99.90;;;;;;5058723;28;20042;-85
2021/12/20 10:35:30;;;;;;;16.48;5.30;;;3.10;99.90;;;;;;5060970;28;20400;-87
2021/12/20 10:37:59;;;;;;;20.23;5.28;;;3.10;99.90;;;;;;5042941;28;20043;-86
2021/12/20 10:43:06;;;;;;;14.30;5.43;;;2.90;99.90;;;;;;1761034;22;20065;-88
2021/12/20 10:45:33;;;;;;;12.88;4.40;;;2.80;99.90;;;;;;4998589;28;20041;-91
2021/12/20 10:48:08;;;;;;;17.65;5.00;;;2.80;99.90;;;;;;4984112;28;20033;-89
2021/12/20 10:50:42;;;;;;;14.77;4.32;;;2.80;99.90;;;;;;5005157;28;20048;-91
2021/12/20 10:53:23;;;;;;;15.07;5.18;;;2.80;99.90;;;;;;5006030;28;20505;-92
2021/12/20 10:55:58;;;;;;;12.23;4.68;;;2.80;99.90;;;;;;5004450;28;20045;-93
2021/12/20 10:58:33;;;;;;;11.70;5.05;;;2.80;99.90;;;;;;5005093;28;20032;-94
2021/12/20 11:01:20;;;;;;;8.73;5.03;;;2.80;99.90;;;;;;5009110;28;20049;-93
2021/12/20 11:04:01;;;;;;;17.98;5.18;;;2.80;99.90;;;;;;5002900;28;20055;-91
2021/12/20 11:06:59;;;;;;;16.17;5.78;;;2.90;99.90;;;;;;5003867;28;20528;-91
2021/12/20 11:09:38;;;;;;;13.70;5.47;;;3.00;99.90;;;;;;4984013;28;20033;-93
2021/12/20 11:12:15;;;;;;;13.90;5.35;;;3.10;99.90;;;;;;5005627;28;20102;-91
2021/12/20 11:14:44;;;;;;;12.15;5.07;;;3.10;99.90;;;;;;5002119;28;20040;-92
2021/12/20 11:17:13;;;;;;;10.95;5.68;;;3.20;99.90;;;;;;5007282;28;20519;-89
2021/12/20 11:19:41;;;;;;;11.23;5.20;;;4.50;99.90;;;;;;5004019;28;20061;-94
2021/12/20 11:22:20;;;;;;;14.20;5.93;;;3.40;99.90;;;;;;5007194;28;20040;-95
2021/12/20 11:24:59;;;;;;;14.90;5.72;;;3.40;99.90;;;;;;4994554;28;20175;-95
2021/12/20 11:27:34;;;;;;;20.55;5.82;;;4.40;99.90;;;;;;5010627;28;20108;-91
2021/12/20 11:30:22;;;;;;;16.15;5.93;;;3.50;99.90;;;;;;5019190;28;20079;-89
2021/12/20 11:32:49;;;;;;;15.10;6.30;;;3.50;99.90;;;;;;5003031;28;20041;-90
2021/12/20 11:35:17;;;;;;;18.55;6.38;;;4.40;99.90;;;;;;4986255;28;20075;-89
2021/12/20 11:37:43;;;;;;;13.43;5.35;;;3.80;99.90;;;;;;4987579;28;20099;-90
2021/12/20 11:40:11;;;;;;;21.95;5.90;;;4.90;99.90;;;;;;4982524;28;20033;-88
2021/12/20 11:42:37;;;;;;;14.25;5.78;;;3.90;99.90;;;;;;4991975;28;20033;-88
2021/12/20 11:45:06;;;;;;;13.15;5.43;;;5.00;99.90;;;;;;5006288;28;20128;-89
2021/12/20 11:47:48;;;;;;;13.32;5.18;;;3.90;99.90;;;;;;5000090;28;20239;-94
2021/12/20 11:50:17;;;;;;;15.48;5.30;;;3.50;99.90;;;;;;5012595;28;20045;-95
2021/12/20 11:52:46;;;;;;;15.63;5.80;;;4.50;99.90;;;;;;4998570;28;20109;-88
2021/12/20 11:55:19;;;;;;;12.10;4.70;;;3.80;99.90;;;;;;5022066;28;20098;-88
2021/12/20 11:57:50;;;;;;;18.30;5.40;;;3.80;99.90;;;;;;5020367;28;20675;-89
2021/12/20 12:00:31;;;;;;;16.13;5.57;;;3.70;99.90;;;;;;5013035;28;20048;-89
2021/12/20 12:03:16;;;;;;;14.10;5.28;;;3.70;99.90;;;;;;5031028;28;20103;-91
2021/12/20 12:05:57;;;;;;;13.60;4.93;;;3.70;99.90;;;;;;5027117;28;20087;-88
2021/12/20 12:08:38;;;;;;;13.50;5.25;;;3.70;99.90;;;;;;4999485;28;20045;-88
2021/12/20 12:11:06;;;;;;;16.50;5.13;;;3.70;99.90;;;;;;5021263;28;20486;-88
2021/12/20 12:13:49;;;;;;;19.95;5.40;;;3.70;99.90;;;;;;5022658;28;20053;-87
2021/12/20 12:16:30;;;;;;;16.45;5.95;;;4.40;99.90;;;;;;5007201;28;20516;-88
2021/12/20 12:18:58;;;;;;;10.38;4.97;;;3.80;99.90;;;;;;5019268;28;20064;-88
2021/12/20 12:21:33;;;;;;;14.07;4.55;;;3.80;99.90;;;;;;4997365;28;20037;-87
2021/12/20 12:24:01;;;;;;;13.93;4.93;;;4.60;99.90;;;;;;5014433;28;20554;-87
2021/12/20 12:26:33;;;;;;;16.10;5.15;;;4.90;99.90;;;;;;5001874;28;20037;-87
2021/12/20 12:28:59;;;;;;;15.93;5.20;;;4.00;99.90;;;;;;5006430;28;20037;-87
2021/12/20 12:31:27;;;;;;;11.45;5.13;;;4.60;99.90;;;;;;5011690;28;20025;-88
2021/12/20 12:34:11;;;;;;;16.55;5.10;;;4.30;99.90;;;;;;4971051;28;20030;-87
2021/12/20 12:36:42;;;;;;;14.98;5.47;;;5.00;99.90;;;;;;5002108;28;20435;-88
2021/12/20 12:39:22;;;;;;;14.48;4.70;;;4.60;99.90;;;;;;5001723;28;20048;-88
2021/12/20 12:41:54;;;;;;;15.23;6.05;;;4.70;99.90;;;;;;5003462;28;20041;-88
2021/12/20 12:44:30;;;;;;;8.93;4.82;;;4.80;99.90;;;;;;5005478;28;20049;-88
2021/12/20 12:47:13;;;;;;;15.00;4.90;;;5.20;99.90;;;;;;5011090;28;20042;-88
2021/12/20 12:49:47;;;;;;;10.50;4.57;;;5.00;99.90;;;;;;5006039;28;20033;-87
2021/12/20 12:52:16;;;;;;;10.88;4.72;;;5.10;99.90;;;;;;5006309;28;20033;-87
2021/12/20 12:55:01;;;;;;;8.90;4.25;;;5.20;99.90;;;;;;5010759;28;20041;-87
2021/12/20 12:57:32;;;;;;;12.82;4.68;;;5.30;99.90;;;;;;5014036;28;20045;-88
2021/12/20 13:00:08;;;;;;;14.57;4.95;;;5.30;99.90;;;;;;5013657;28;20033;-87
2021/12/20 13:02:36;;;;;;;12.00;5.35;;;5.40;99.90;;;;;;5010780;28;20158;-87
2021/12/20 13:05:13;;;;;;;14.15;4.47;;;6.10;99.90;;;;;;5002496;28;20072;-87
2021/12/20 13:07:49;;;;;;;13.15;4.10;;;5.50;99.90;;;;;;5016825;28;20537;-87